createdAt,value
2022-09-14T00:01:44.272Z,68.45
2022-09-14T00:04:14.867Z,68.17
2022-09-14T00:06:43.849Z,68.58
2022-09-14T00:09:16.313Z,68.42
2022-09-14T00:11:46.051Z,68.43
2022-09-14T00:14:14.392Z,68.54
2022-09-14T00:16:43.407Z,68.81
2022-09-14T00:19:18.681Z,68.83
2022-09-14T00:21:47.007Z,68.94
2022-09-14T00:24:15.190Z,69.05
2022-09-14T00:26:43.552Z,68.77
2022-09-14T00:29:13.128Z,68.71
2022-09-14T00:31:41.880Z,68.80
2022-09-14T00:34:14.245Z,68.39
2022-09-14T00:36:46.490Z,68.16
2022-09-14T00:39:15.540Z,68.02
2022-09-14T00:41:46.014Z,68.32
2022-09-14T00:44:47.183Z,68.64
2022-09-14T00:47:18.592Z,68.98
2022-09-14T00:49:46.827Z,69.41
2022-09-14T00:52:19.064Z,69.58
2022-09-14T00:54:50.135Z,69.81
2022-09-14T00:57:19.995Z,70.07
2022-09-14T00:59:51.309Z,70.04
2022-09-14T01:02:23.141Z,69.73
2022-09-14T01:04:52.468Z,70.00
2022-09-14T01:07:31.647Z,69.53
2022-09-14T01:10:09.010Z,68.98
2022-09-14T01:12:48.295Z,69.39
2022-09-14T01:15:26.037Z,70.48
2022-09-14T01:18:02.074Z,70.42
2022-09-14T01:20:36.634Z,70.44
2022-09-14T01:23:11.993Z,70.52
2022-09-14T01:26:24.260Z,71.10
2022-09-14T01:28:58.493Z,71.49
2022-09-14T01:31:32.273Z,71.89
2022-09-14T01:34:10.828Z,72.12
2022-09-14T01:36:43.059Z,72.11
2022-09-14T01:39:12.474Z,72.89
2022-09-14T01:41:42.737Z,73.01
2022-09-14T01:44:16.612Z,73.11
2022-09-14T01:46:48.898Z,72.85
2022-09-14T01:49:21.781Z,73.58
2022-09-14T01:51:53.213Z,73.93
2022-09-14T01:54:27.849Z,74.74
2022-09-14T01:57:01.331Z,74.15
2022-09-14T01:59:35.170Z,74.26
2022-09-14T02:02:08.920Z,74.27
2022-09-14T02:04:44.104Z,74.45
2022-09-14T02:07:12.804Z,75.02
2022-09-14T02:09:41.514Z,75.26
2022-09-14T02:12:10.024Z,74.06
2022-09-14T02:14:39.567Z,74.25
2022-09-14T02:17:08.380Z,74.14
2022-09-14T02:19:42.536Z,74.57
2022-09-14T02:22:10.606Z,73.69
2022-09-14T02:24:38.682Z,73.63
2022-09-14T02:27:08.184Z,73.44
2022-09-14T02:29:37.125Z,73.34
2022-09-14T02:32:16.517Z,72.93
2022-09-14T02:34:54.607Z,71.56
2022-09-14T02:37:29.280Z,70.46
2022-09-14T02:40:05.981Z,70.79
2022-09-14T02:42:41.434Z,70.89
2022-09-14T02:45:19.753Z,71.23
2022-09-14T02:47:56.442Z,72.12
2022-09-14T02:50:32.176Z,72.09
2022-09-14T02:53:06.314Z,72.14
2022-09-14T02:55:38.599Z,72.66
2022-09-14T02:58:09.015Z,72.59
2022-09-14T03:00:40.400Z,73.25
2022-09-14T03:03:11.695Z,73.92
2022-09-14T03:05:39.916Z,74.01
2022-09-14T03:08:08.856Z,74.00
2022-09-14T03:10:37.370Z,74.57
2022-09-14T03:13:05.605Z,75.06
2022-09-14T03:15:33.688Z,76.27
2022-09-14T03:18:01.854Z,75.90
2022-09-14T03:20:34.379Z,76.35
2022-09-14T03:23:03.610Z,76.22
2022-09-14T03:25:31.683Z,76.39
2022-09-14T03:28:01.167Z,76.62
2022-09-14T03:30:29.692Z,76.51
2022-09-14T03:32:59.121Z,76.72
2022-09-14T03:35:28.667Z,77.44
2022-09-14T03:37:59.183Z,77.22
2022-09-14T03:40:28.328Z,77.85
2022-09-14T03:42:56.576Z,77.88
2022-09-14T03:45:24.768Z,78.17
2022-09-14T03:47:52.797Z,78.22
2022-09-14T03:50:21.192Z,79.43
2022-09-14T03:52:49.335Z,79.28
2022-09-14T03:55:19.303Z,79.96
2022-09-14T03:57:47.453Z,80.10
2022-09-14T04:00:16.147Z,80.83
2022-09-14T04:02:45.551Z,81.29
2022-09-14T04:05:13.988Z,81.51
2022-09-14T04:07:42.180Z,82.83
2022-09-14T04:10:11.008Z,84.59
2022-09-14T04:12:40.950Z,84.84
2022-09-14T04:15:10.146Z,84.90
2022-09-14T04:17:38.466Z,83.57
2022-09-14T04:20:09.739Z,83.79
2022-09-14T04:22:37.925Z,83.66
2022-09-14T04:25:06.751Z,83.03
2022-09-14T04:27:34.851Z,81.62
2022-09-14T04:30:04.573Z,80.63
2022-09-14T04:32:34.554Z,80.44
2022-09-14T04:35:02.947Z,80.15
2022-09-14T04:37:33.081Z,80.40
2022-09-14T04:40:01.701Z,79.66
2022-09-14T04:42:31.596Z,79.73
2022-09-14T04:44:59.642Z,81.25
2022-09-14T04:47:30.131Z,80.75
2022-09-14T04:49:58.293Z,78.70
2022-09-14T04:52:26.360Z,78.28
2022-09-14T04:54:54.424Z,78.17
2022-09-14T04:57:22.611Z,78.06
2022-09-14T04:59:50.651Z,75.81
2022-09-14T05:02:18.795Z,75.76
2022-09-14T05:04:48.226Z,75.92
2022-09-14T05:07:17.876Z,75.60
2022-09-14T05:09:45.928Z,75.96
2022-09-14T05:12:14.027Z,76.33
2022-09-14T05:14:42.132Z,76.22
2022-09-14T05:17:11.273Z,75.77
2022-09-14T05:19:39.307Z,76.71
2022-09-14T05:22:08.792Z,76.55
2022-09-14T05:24:36.782Z,75.67
2022-09-14T05:27:05.161Z,75.79
2022-09-14T05:29:33.243Z,76.07
2022-09-14T05:32:01.291Z,75.34
2022-09-14T05:34:29.279Z,75.21
2022-09-14T05:36:57.449Z,75.13
2022-09-14T05:39:27.497Z,73.90
2022-09-14T05:41:55.525Z,74.18
2022-09-14T05:44:23.712Z,71.60
2022-09-14T05:46:51.828Z,71.01
2022-09-14T05:49:19.987Z,70.33
2022-09-14T05:51:48.023Z,70.81
2022-09-14T05:54:16.026Z,69.31
2022-09-14T05:56:45.470Z,68.74
2022-09-14T05:59:13.581Z,68.25
2022-09-14T06:01:41.673Z,67.97
2022-09-14T06:04:12.390Z,67.87
2022-09-14T06:06:40.635Z,67.82
2022-09-14T06:09:08.653Z,67.68
2022-09-14T06:11:37.677Z,67.17
2022-09-14T06:14:07.527Z,67.39
2022-09-14T06:16:35.997Z,66.75
2022-09-14T06:19:04.006Z,66.68
2022-09-14T06:21:35.797Z,66.72
2022-09-14T06:24:04.208Z,66.96
2022-09-14T06:26:32.310Z,67.04
2022-09-14T06:29:00.819Z,65.43
2022-09-14T06:31:30.259Z,66.28
2022-09-14T06:33:58.389Z,65.56
2022-09-14T06:36:28.543Z,65.31
2022-09-14T06:38:59.865Z,65.30
2022-09-14T06:41:31.349Z,65.64
2022-09-14T06:44:01.890Z,65.95
2022-09-14T06:46:33.803Z,65.84
2022-09-14T06:49:04.080Z,65.03
2022-09-14T06:51:34.602Z,64.08
2022-09-14T06:54:03.817Z,62.39
2022-09-14T06:56:33.702Z,62.34
2022-09-14T06:59:01.849Z,61.71
2022-09-14T07:01:31.625Z,61.04
2022-09-14T07:04:01.572Z,61.32
2022-09-14T07:06:32.505Z,62.29
2022-09-14T07:09:04.168Z,62.37
2022-09-14T07:11:32.955Z,62.46
2022-09-14T07:14:02.007Z,61.52
2022-09-14T07:16:33.357Z,61.70
2022-09-14T07:19:05.278Z,61.03
2022-09-14T07:21:34.464Z,60.79
2022-09-14T07:24:03.332Z,59.93
2022-09-14T07:26:34.081Z,59.33
2022-09-14T07:29:05.172Z,59.16
2022-09-14T07:31:37.313Z,57.92
2022-09-14T07:34:06.572Z,57.66
2022-09-14T07:36:36.185Z,57.23
2022-09-14T07:39:07.063Z,55.30
2022-09-14T07:41:36.111Z,55.24
2022-09-14T07:44:05.529Z,54.18
2022-09-14T07:46:39.745Z,53.49
2022-09-14T07:49:09.679Z,54.36
2022-09-14T07:51:38.136Z,54.06
2022-09-14T07:54:07.730Z,52.63
2022-09-14T07:56:36.578Z,52.88
2022-09-14T08:01:55.283Z,53.12
2022-09-14T08:04:23.610Z,52.06
2022-09-14T08:06:51.612Z,51.53
2022-09-14T08:09:19.591Z,50.76
2022-09-14T08:11:47.583Z,50.00
2022-09-14T08:14:15.703Z,49.21
2022-09-14T08:16:43.922Z,49.79
2022-09-14T08:19:18.621Z,49.91
2022-09-14T08:21:47.654Z,48.31
2022-09-14T08:24:18.106Z,46.89
2022-09-14T08:26:46.555Z,46.84
2022-09-14T08:29:14.777Z,47.84
2022-09-14T08:31:44.423Z,48.01
2022-09-14T08:34:15.025Z,47.77
2022-09-14T08:36:43.956Z,45.95
2022-09-14T08:39:14.378Z,44.20
2022-09-14T08:41:52.509Z,43.98
2022-09-14T08:44:25.186Z,41.76
2022-09-14T08:46:59.394Z,41.62
2022-09-14T08:49:41.089Z,41.09
2022-09-14T08:52:18.801Z,40.73
2022-09-14T08:54:51.363Z,40.02
2022-09-14T08:57:23.115Z,40.30
2022-09-14T08:59:57.837Z,39.26
2022-09-14T09:02:40.199Z,39.81
2022-09-14T09:05:25.196Z,40.57
2022-09-14T09:08:00.133Z,40.74
2022-09-14T09:10:28.947Z,41.14
2022-09-14T09:13:00.743Z,39.04
2022-09-14T09:15:32.224Z,38.07
2022-09-14T09:18:03.744Z,37.17
2022-09-14T09:20:36.195Z,36.37
2022-09-14T09:23:13.130Z,37.01
2022-09-14T09:26:09.291Z,36.24
2022-09-14T09:28:43.383Z,36.49
2022-09-14T09:31:14.943Z,35.89
2022-09-14T09:33:43.902Z,35.78
2022-09-14T09:36:16.021Z,36.16
2022-09-14T09:38:44.121Z,35.44
2022-09-14T09:41:17.215Z,36.16
2022-09-14T09:44:00.344Z,35.87
2022-09-14T09:46:30.151Z,34.89
2022-09-14T09:48:58.371Z,35.54
2022-09-14T09:51:34.176Z,34.95
2022-09-14T09:54:08.962Z,34.26
2022-09-14T09:56:40.461Z,34.11
2022-09-14T09:59:24.856Z,33.91
2022-09-14T10:01:56.010Z,33.87
2022-09-14T10:04:30.135Z,34.08
2022-09-14T10:06:59.875Z,34.15
2022-09-14T10:09:29.512Z,33.90
2022-09-14T10:12:00.202Z,34.50
2022-09-14T10:14:32.384Z,33.93
2022-09-14T10:17:08.885Z,33.52
2022-09-14T10:19:38.145Z,33.91
2022-09-14T10:22:25.664Z,34.15
2022-09-14T10:24:57.892Z,33.93
2022-09-14T10:27:39.814Z,33.67
2022-09-14T10:30:14.725Z,33.88
2022-09-14T10:32:46.924Z,32.99
2022-09-14T10:35:16.348Z,32.38
2022-09-14T10:38:00.366Z,31.54
2022-09-14T10:40:37.046Z,32.00
2022-09-14T10:43:12.604Z,31.55
2022-09-14T10:45:46.515Z,32.01
2022-09-14T10:48:37.528Z,31.26
2022-09-14T10:51:27.139Z,30.69
2022-09-14T10:54:03.428Z,30.95
2022-09-14T10:56:49.889Z,31.35
2022-09-14T10:59:32.237Z,31.78
2022-09-14T11:02:34.038Z,31.25
2022-09-14T11:05:13.003Z,31.84
2022-09-14T11:07:53.593Z,31.77
2022-09-14T11:10:29.510Z,31.69
2022-09-14T11:13:21.565Z,30.56
2022-09-14T11:15:59.986Z,30.69
2022-09-14T11:18:34.834Z,31.43
2022-09-14T11:21:12.046Z,32.15
2022-09-14T11:23:50.434Z,31.65
2022-09-14T11:26:26.728Z,31.46
2022-09-14T11:28:59.906Z,31.33
2022-09-14T11:31:32.714Z,31.62
2022-09-14T11:34:12.376Z,30.89
2022-09-14T11:36:45.861Z,30.33
2022-09-14T11:39:20.720Z,30.68
2022-09-14T11:41:54.541Z,30.39
2022-09-14T11:44:26.006Z,29.98
2022-09-14T11:47:00.967Z,30.15
2022-09-14T11:49:35.524Z,30.48
2022-09-14T11:52:10.135Z,30.09
2022-09-14T11:54:46.088Z,30.03
2022-09-14T11:57:20.607Z,29.92
2022-09-14T11:59:54.125Z,29.75
2022-09-14T12:03:02.476Z,29.84
2022-09-14T12:05:36.405Z,29.82
2022-09-14T12:08:25.713Z,29.71
2022-09-14T12:11:31.961Z,29.47
2022-09-14T12:14:33.268Z,28.48
2022-09-14T12:17:28.644Z,28.93
2022-09-14T12:20:00.015Z,28.70
2022-09-14T12:22:32.852Z,29.24
2022-09-14T12:25:16.171Z,29.71
2022-09-14T12:27:45.448Z,28.96
2022-09-14T12:30:57.448Z,30.18
2022-09-14T12:34:16.051Z,28.73
2022-09-14T12:37:28.704Z,28.95
2022-09-14T12:40:34.344Z,29.05
2022-09-14T12:43:51.129Z,28.29
2022-09-14T12:46:50.620Z,28.20
2022-09-14T12:49:30.141Z,27.72
2022-09-14T12:52:04.793Z,27.13
2022-09-14T12:54:50.637Z,28.03
2022-09-14T12:57:30.403Z,27.71
2022-09-14T13:00:06.455Z,27.83
2022-09-14T13:02:57.217Z,28.00
2022-09-14T13:05:28.009Z,27.96
2022-09-14T13:07:57.422Z,27.57
2022-09-14T13:10:31.528Z,27.71
2022-09-14T13:13:02.598Z,27.47
2022-09-14T13:15:36.544Z,27.70
2022-09-14T13:18:08.373Z,27.52
2022-09-14T13:20:37.080Z,27.71
2022-09-14T13:23:20.352Z,27.39
2022-09-14T13:25:48.479Z,27.52
2022-09-14T13:28:18.788Z,27.23
2022-09-14T13:30:56.046Z,27.81
2022-09-14T13:33:26.005Z,26.99
2022-09-14T13:35:56.487Z,27.71
2022-09-14T13:38:26.218Z,27.33
2022-09-14T13:40:56.931Z,27.67
2022-09-14T13:43:25.301Z,27.59
2022-09-14T13:45:53.777Z,27.54
2022-09-14T13:48:22.768Z,27.93
2022-09-14T13:50:53.731Z,27.54
2022-09-14T13:53:42.858Z,27.36
2022-09-14T13:56:19.806Z,27.32
2022-09-14T13:58:48.959Z,27.31
2022-09-14T14:01:26.914Z,27.68
2022-09-14T14:03:55.722Z,27.93
2022-09-14T14:06:27.842Z,28.17
2022-09-14T14:09:02.565Z,27.72
2022-09-14T14:11:35.315Z,27.81
2022-09-14T14:14:15.329Z,28.36
2022-09-14T14:16:44.551Z,28.19
2022-09-14T14:19:28.642Z,28.03
2022-09-14T14:22:19.236Z,27.63
2022-09-14T14:25:12.471Z,28.21
2022-09-14T14:27:41.340Z,27.60
2022-09-14T14:30:15.672Z,27.41
2022-09-14T14:32:44.016Z,27.97
2022-09-14T14:35:17.925Z,28.21
2022-09-14T14:37:47.906Z,28.34
2022-09-14T14:40:17.291Z,27.97
2022-09-14T14:42:46.214Z,28.19
2022-09-14T14:45:19.381Z,28.00
2022-09-14T14:47:48.502Z,28.49
2022-09-14T14:50:17.513Z,28.50
2022-09-14T14:52:45.566Z,28.90
2022-09-14T14:55:15.240Z,28.93
2022-09-14T14:57:43.266Z,28.45
2022-09-14T15:00:16.025Z,28.94
2022-09-14T15:02:44.306Z,29.07
2022-09-14T15:05:12.831Z,28.94
2022-09-14T15:07:41.780Z,29.05
2022-09-14T15:10:15.249Z,29.40
2022-09-14T15:12:43.919Z,28.62
2022-09-14T15:15:15.304Z,28.83
2022-09-14T15:17:43.791Z,29.41
2022-09-14T15:20:13.260Z,29.29
2022-09-14T15:22:42.389Z,29.07
2022-09-14T15:25:12.928Z,29.74
2022-09-14T15:27:43.085Z,29.38
2022-09-14T15:30:13.388Z,29.96
2022-09-14T15:32:42.290Z,29.67
2022-09-14T15:35:16.264Z,29.82
2022-09-14T15:37:44.297Z,30.02
2022-09-14T15:40:12.822Z,30.20
2022-09-14T15:42:42.468Z,29.80
2022-09-14T15:45:11.299Z,30.31
2022-09-14T15:47:39.375Z,30.44
2022-09-14T15:50:07.987Z,30.29
2022-09-14T15:52:37.654Z,31.13
2022-09-14T15:55:08.011Z,31.40
2022-09-14T15:57:36.421Z,31.22
2022-09-14T16:00:08.615Z,31.55
2022-09-14T16:02:36.669Z,30.71
2022-09-14T16:05:04.966Z,30.82
2022-09-14T16:07:33.083Z,30.92
2022-09-14T16:10:01.061Z,30.76
2022-09-14T16:12:29.261Z,32.83
2022-09-14T16:14:57.262Z,33.23
2022-09-14T16:17:26.964Z,33.38
2022-09-14T16:19:55.156Z,33.02
2022-09-14T16:22:25.297Z,33.27
2022-09-14T16:24:53.334Z,33.44
2022-09-14T16:27:21.889Z,33.84
2022-09-14T16:29:49.924Z,34.18
2022-09-14T16:32:17.901Z,34.20
2022-09-14T16:34:47.380Z,34.73
2022-09-14T16:37:15.379Z,35.28
2022-09-14T16:39:43.496Z,35.68
2022-09-14T16:42:11.628Z,35.71
2022-09-14T16:44:39.739Z,35.52
2022-09-14T16:47:08.021Z,35.83
2022-09-14T16:49:37.270Z,36.69
2022-09-14T16:52:06.863Z,36.65
2022-09-14T16:54:34.885Z,36.97
2022-09-14T16:57:02.912Z,37.42
2022-09-14T16:59:30.985Z,37.52
2022-09-14T17:01:59.107Z,38.03
2022-09-14T17:04:27.249Z,38.58
2022-09-14T17:06:56.196Z,38.77
2022-09-14T17:09:27.522Z,39.10
2022-09-14T17:11:56.776Z,38.80
2022-09-14T17:14:28.514Z,38.43
2022-09-14T17:16:56.540Z,38.32
2022-09-14T17:19:24.855Z,38.59
2022-09-14T17:21:53.485Z,39.13
2022-09-14T17:24:22.470Z,39.40
2022-09-14T17:26:51.996Z,39.26
2022-09-14T17:29:21.089Z,39.68
2022-09-14T17:31:50.802Z,39.82
2022-09-14T17:34:19.017Z,40.02
2022-09-14T17:36:47.389Z,40.39
2022-09-14T17:39:16.540Z,40.48
2022-09-14T17:41:45.045Z,41.04
2022-09-14T17:44:16.250Z,41.32
2022-09-14T17:46:51.992Z,41.50
2022-09-14T17:49:21.945Z,41.79
2022-09-14T17:51:50.894Z,42.15
2022-09-14T17:54:19.662Z,42.08
2022-09-14T17:56:47.807Z,42.53
2022-09-14T17:59:20.176Z,42.95
2022-09-14T18:01:49.064Z,43.37
2022-09-14T18:04:17.709Z,43.55
2022-09-14T18:06:49.668Z,43.90
2022-09-14T18:09:19.684Z,44.04
2022-09-14T18:11:48.627Z,44.17
2022-09-14T18:14:18.300Z,44.18
2022-09-14T18:16:46.480Z,44.31
2022-09-14T18:19:15.187Z,44.72
2022-09-14T18:21:45.128Z,44.96
2022-09-14T18:24:15.795Z,45.76
2022-09-14T18:26:46.322Z,46.17
2022-09-14T18:29:16.456Z,46.19
2022-09-14T18:31:46.184Z,45.88
2022-09-14T18:34:14.646Z,46.21
2022-09-14T18:36:42.734Z,46.29
2022-09-14T18:39:11.438Z,46.71
2022-09-14T18:41:39.799Z,48.04
2022-09-14T18:44:08.265Z,48.92
2022-09-14T18:46:36.390Z,48.82
2022-09-14T18:49:06.486Z,48.73
2022-09-14T18:51:34.598Z,47.09
2022-09-14T18:54:06.408Z,47.23
2022-09-14T18:56:36.276Z,46.91
2022-09-14T18:59:06.247Z,47.00
2022-09-14T19:01:35.366Z,47.10
2022-09-14T19:04:08.003Z,47.10
2022-09-14T19:06:37.736Z,46.59
2022-09-14T19:09:07.104Z,46.38
2022-09-14T19:11:36.547Z,46.96
2022-09-14T19:14:09.426Z,46.79
2022-09-14T19:16:39.245Z,46.79
2022-09-14T19:19:10.981Z,47.69
2022-09-14T19:21:39.159Z,47.48
2022-09-14T19:24:09.846Z,47.58
2022-09-14T19:26:45.295Z,47.21
2022-09-14T19:29:16.535Z,47.38
2022-09-14T19:31:44.955Z,47.74
2022-09-14T19:34:14.472Z,48.25
2022-09-14T19:36:43.862Z,48.57
2022-09-14T19:39:12.157Z,48.92
2022-09-14T19:41:40.588Z,48.87
2022-09-14T19:44:09.193Z,48.70
2022-09-14T19:46:40.136Z,49.24
2022-09-14T19:49:09.263Z,49.75
2022-09-14T19:51:39.074Z,50.49
2022-09-14T19:54:07.158Z,51.68
2022-09-14T19:56:35.205Z,52.10
2022-09-14T19:59:05.103Z,53.02
2022-09-14T20:01:35.808Z,53.54
2022-09-14T20:04:05.645Z,53.85
2022-09-14T20:06:35.968Z,54.63
2022-09-14T20:09:08.907Z,54.77
2022-09-14T20:11:38.681Z,54.68
2022-09-14T20:14:09.145Z,55.06
2022-09-14T20:16:39.446Z,55.17
2022-09-14T20:19:09.488Z,55.81
2022-09-14T20:21:38.168Z,56.20
2022-09-14T20:24:16.261Z,56.50
2022-09-14T20:26:46.082Z,56.07
2022-09-14T20:29:15.272Z,56.25
2022-09-14T20:31:43.928Z,56.13
2022-09-14T20:34:12.200Z,56.36
2022-09-14T20:36:41.145Z,56.96
2022-09-14T20:39:10.791Z,57.14
2022-09-14T20:41:38.994Z,56.84
2022-09-14T20:44:08.087Z,57.17
2022-09-14T20:46:39.391Z,57.96
2022-09-14T20:49:11.375Z,57.97
2022-09-14T20:51:40.386Z,58.46
2022-09-14T20:54:11.756Z,58.32
2022-09-14T20:56:40.053Z,58.39
2022-09-14T20:59:11.142Z,58.60
2022-09-14T21:01:41.293Z,58.68
2022-09-14T21:04:11.385Z,58.83
2022-09-14T21:06:41.519Z,59.06
2022-09-14T21:09:12.361Z,59.36
2022-09-14T21:11:40.966Z,59.50
2022-09-14T21:14:09.874Z,59.54
2022-09-14T21:16:43.115Z,60.30
2022-09-14T21:19:14.737Z,60.27
2022-09-14T21:21:43.921Z,60.31
2022-09-14T21:24:14.218Z,60.26
2022-09-14T21:26:44.062Z,60.10
2022-09-14T21:29:15.814Z,61.34
2022-09-14T21:31:44.203Z,61.85
2022-09-14T21:36:43.091Z,63.34
2022-09-14T21:39:19.291Z,63.43
2022-09-14T21:41:49.086Z,63.76
2022-09-14T21:44:17.580Z,64.27
2022-09-14T21:46:45.727Z,64.55
2022-09-14T21:49:16.164Z,64.40
2022-09-14T21:51:44.565Z,63.87
2022-09-14T21:54:14.057Z,64.47
2022-09-14T21:56:45.478Z,64.98
2022-09-14T21:59:15.822Z,65.54
2022-09-14T22:01:44.297Z,66.22
2022-09-14T22:04:15.713Z,66.78
2022-09-14T22:06:45.742Z,66.99
2022-09-14T22:09:14.857Z,67.60
2022-09-14T22:11:44.489Z,67.75
2022-09-14T22:14:15.328Z,67.72
2022-09-14T22:16:43.734Z,68.13
2022-09-14T22:19:15.689Z,68.58
2022-09-14T22:21:44.266Z,68.76
2022-09-14T22:24:14.129Z,68.49
2022-09-14T22:26:43.734Z,68.64
2022-09-14T22:29:12.946Z,69.07
2022-09-14T22:31:42.149Z,69.54
2022-09-14T22:34:10.765Z,70.16
2022-09-14T22:36:40.301Z,71.08
2022-09-14T22:39:10.052Z,71.78
2022-09-14T22:41:38.896Z,72.49
2022-09-14T22:44:08.810Z,72.47
2022-09-14T22:46:37.424Z,72.57
2022-09-14T22:49:05.578Z,72.60
2022-09-14T22:51:34.488Z,72.84
2022-09-14T22:54:03.167Z,73.24
2022-09-14T22:56:35.375Z,73.15
2022-09-14T22:59:06.213Z,73.23
2022-09-14T23:01:38.425Z,73.81
2022-09-14T23:04:08.417Z,73.99
2022-09-14T23:06:38.450Z,74.20
2022-09-14T23:09:07.465Z,74.14
2022-09-14T23:11:35.852Z,74.23
2022-09-14T23:14:03.927Z,74.57
2022-09-14T23:16:32.394Z,74.89
2022-09-14T23:19:03.749Z,75.69
2022-09-14T23:21:32.737Z,76.44
2022-09-14T23:24:02.892Z,76.89
2022-09-14T23:26:32.002Z,76.85
2022-09-14T23:29:01.998Z,77.25
2022-09-14T23:31:32.706Z,77.63
2022-09-14T23:34:03.846Z,77.66
2022-09-14T23:36:32.889Z,77.71
2022-09-14T23:39:01.570Z,77.59
2022-09-14T23:41:30.118Z,78.03
2022-09-14T23:43:58.219Z,78.63
2022-09-14T23:46:26.396Z,78.73
2022-09-14T23:48:54.580Z,79.26
2022-09-14T23:51:24.204Z,79.41
2022-09-14T23:53:52.162Z,79.80
2022-09-14T23:56:20.131Z,79.84
2022-09-14T23:58:48.186Z,79.63
